Time;durP1;ratioP1;P1;durP2;ratioP2;P2;SDS_P1;SDS_P2;PMS_P1;PMS_P2;Temp;Humidity;BMP_temperature;BMP_pressure;BME280_temperature;BME280_humidity;BME280_pressure;Samples;Min_cycle;Max_cycle;Signal;HPM_P1;HPM_P2
2022/03/13 00:00:53;;;;;;;9.43;4.60;;;12.40;57.10;;;;;;5043000;28;20033;-63
2022/03/13 00:03:21;;;;;;;12.45;6.20;;;12.50;57.10;;;;;;5022520;28;20025;-67
2022/03/13 00:05:50;;;;;;;10.40;5.75;;;12.40;57.10;;;;;;5013160;28;20140;-66
2022/03/13 00:08:22;;;;;;;10.07;5.28;;;12.40;57.10;;;;;;5039764;28;20052;-66
2022/03/13 00:10:56;;;;;;;12.95;5.55;;;12.40;56.90;;;;;;5045129;28;20472;-62
2022/03/13 00:13:51;;;;;;;11.00;5.78;;;12.30;57.10;;;;;;5049775;28;20437;-62
2022/03/13 00:16:18;;;;;;;11.68;5.93;;;12.30;57.10;;;;;;5046832;28;20403;-61
2022/03/13 00:18:49;;;;;;;10.00;5.90;;;12.30;57.20;;;;;;5030540;28;20164;-62
2022/03/13 00:21:19;;;;;;;12.38;6.32;;;12.20;57.30;;;;;;5045221;28;20037;-62
2022/03/13 00:23:46;;;;;;;8.80;5.68;;;12.20;57.40;;;;;;5034996;28;20025;-62
2022/03/13 00:26:15;;;;;;;11.25;5.72;;;12.20;57.40;;;;;;5043603;28;20490;-62
2022/03/13 00:29:00;;;;;;;11.82;6.15;;;12.20;57.50;;;;;;5041860;28;20053;-62
2022/03/13 00:31:25;;;;;;;10.27;5.65;;;12.10;58.10;;;;;;5044374;28;20017;-62
2022/03/13 00:33:51;;;;;;;8.88;5.57;;;12.10;57.40;;;;;;5033959;28;20033;-62
2022/03/13 00:36:17;;;;;;;12.48;5.65;;;12.00;57.60;;;;;;5036878;28;20025;-62
2022/03/13 00:38:43;;;;;;;14.15;7.80;;;12.00;57.60;;;;;;5030854;28;20045;-62
2022/03/13 00:41:09;;;;;;;13.25;7.47;;;11.90;57.70;;;;;;5035749;28;20059;-62
2022/03/13 00:43:34;;;;;;;13.88;6.35;;;11.90;57.80;;;;;;5047822;28;20029;-62
2022/03/13 00:46:00;;;;;;;11.50;7.28;;;11.90;57.90;;;;;;5034624;28;20490;-62
2022/03/13 00:48:27;;;;;;;11.20;6.35;;;11.80;58.00;;;;;;5051020;28;20033;-63
2022/03/13 00:50:54;;;;;;;11.38;6.50;;;11.90;58.00;;;;;;5044423;28;20442;-62
2022/03/13 00:53:19;;;;;;;13.32;6.72;;;11.80;58.00;;;;;;5043816;28;20143;-62
2022/03/13 00:55:45;;;;;;;12.30;6.35;;;11.80;58.10;;;;;;5037817;28;20171;-62
2022/03/13 00:58:11;;;;;;;13.77;6.60;;;11.80;58.20;;;;;;5042893;28;20036;-62
2022/03/13 01:00:36;;;;;;;14.23;7.32;;;11.80;58.10;;;;;;5045269;28;20555;-63
2022/03/13 01:03:02;;;;;;;12.82;7.40;;;11.80;58.40;;;;;;5035683;28;20601;-62
2022/03/13 01:05:28;;;;;;;13.55;6.78;;;11.80;58.30;;;;;;5041315;28;20412;-62
2022/03/13 01:07:56;;;;;;;9.93;6.10;;;11.80;58.40;;;;;;5040025;28;20083;-62
2022/03/13 01:10:23;;;;;;;14.02;6.82;;;11.80;58.40;;;;;;5046898;28;20019;-62
2022/03/13 01:12:50;;;;;;;12.73;6.88;;;11.80;58.40;;;;;;5035655;28;20029;-62
2022/03/13 01:15:16;;;;;;;11.23;6.47;;;11.80;58.70;;;;;;5037195;28;20149;-67
2022/03/13 01:17:43;;;;;;;13.82;7.35;;;11.80;58.60;;;;;;5043831;28;20039;-67
2022/03/13 01:20:21;;;;;;;13.25;7.57;;;11.80;58.90;;;;;;5044695;28;20033;-62
2022/03/13 01:22:47;;;;;;;14.15;8.35;;;11.70;59.00;;;;;;5040857;28;20040;-62
2022/03/13 01:25:13;;;;;;;12.20;7.88;;;11.70;58.90;;;;;;5033621;28;20037;-62
2022/03/13 01:27:40;;;;;;;17.00;7.47;;;11.70;58.80;;;;;;5046812;28;20025;-62
2022/03/13 01:30:06;;;;;;;13.32;7.72;;;11.70;59.00;;;;;;5032914;28;20033;-62
2022/03/13 01:32:33;;;;;;;12.23;7.28;;;11.70;59.10;;;;;;5031923;28;20507;-63
2022/03/13 01:34:59;;;;;;;13.88;7.55;;;11.70;59.00;;;;;;5046821;28;20028;-62
2022/03/13 01:37:40;;;;;;;11.32;7.13;;;11.70;59.30;;;;;;5037145;28;20057;-62
2022/03/13 01:40:09;;;;;;;13.68;7.65;;;11.70;59.30;;;;;;5080634;28;20112;-62
2022/03/13 01:42:35;;;;;;;12.57;7.05;;;11.60;59.20;;;;;;5047112;28;20025;-62
2022/03/13 01:45:02;;;;;;;13.18;7.65;;;11.60;59.30;;;;;;5030926;28;20036;-62
2022/03/13 01:47:28;;;;;;;15.10;8.90;;;11.60;59.40;;;;;;5044361;28;20029;-62
2022/03/13 01:49:54;;;;;;;11.98;6.65;;;11.60;59.30;;;;;;5037514;28;20051;-62
2022/03/13 01:52:24;;;;;;;13.10;6.32;;;11.50;59.40;;;;;;5043261;28;20396;-67
2022/03/13 01:54:50;;;;;;;15.88;5.85;;;11.50;59.30;;;;;;5066439;28;20573;-66
2022/03/13 01:57:18;;;;;;;10.80;5.63;;;11.50;59.40;;;;;;5047013;28;20059;-67
2022/03/13 01:59:44;;;;;;;12.57;6.13;;;11.50;59.40;;;;;;5038928;28;20446;-67
2022/03/13 02:02:10;;;;;;;9.40;5.70;;;11.50;59.30;;;;;;5046071;28;20043;-67
2022/03/13 02:04:36;;;;;;;12.43;6.88;;;11.50;59.30;;;;;;5046145;28;20033;-67
2022/03/13 02:07:03;;;;;;;11.43;6.65;;;11.40;59.30;;;;;;5043797;28;20032;-66
2022/03/13 02:09:29;;;;;;;14.30;7.18;;;11.40;59.30;;;;;;5037871;28;20117;-67
2022/03/13 02:11:55;;;;;;;15.02;6.72;;;11.30;59.40;;;;;;5046888;28;20647;-66
2022/03/13 02:14:23;;;;;;;12.85;6.95;;;11.30;59.50;;;;;;5043849;28;20029;-66
2022/03/13 02:16:53;;;;;;;21.25;7.50;;;11.30;59.40;;;;;;5046948;28;20523;-67
2022/03/13 02:19:20;;;;;;;18.85;7.78;;;11.20;59.50;;;;;;5046701;28;20112;-67
2022/03/13 02:21:49;;;;;;;15.02;6.63;;;11.20;59.60;;;;;;5045972;28;20071;-67
2022/03/13 02:24:16;;;;;;;11.93;6.38;;;11.20;59.60;;;;;;5036459;28;20033;-67
2022/03/13 02:26:44;;;;;;;12.85;7.30;;;11.20;59.60;;;;;;5046680;28;20029;-67
2022/03/13 02:29:14;;;;;;;12.70;7.07;;;11.10;59.60;;;;;;5045732;28;20392;-67
2022/03/13 02:31:40;;;;;;;12.05;6.47;;;11.10;59.60;;;;;;5031816;28;20033;-67
2022/03/13 02:34:10;;;;;;;13.27;6.68;;;11.00;59.60;;;;;;5047834;28;20112;-67
2022/03/13 02:36:35;;;;;;;14.18;7.38;;;11.00;59.70;;;;;;5048510;28;20087;-67
2022/03/13 02:39:05;;;;;;;14.35;7.13;;;11.00;59.70;;;;;;5048489;28;20029;-66
2022/03/13 02:41:32;;;;;;;11.13;6.43;;;11.00;59.80;;;;;;5044490;28;20498;-67
2022/03/13 02:43:58;;;;;;;14.23;7.43;;;10.90;59.80;;;;;;5034861;28;20034;-67
2022/03/13 02:46:46;;;;;;;14.93;7.30;;;10.90;59.90;;;;;;5046127;28;20040;-67
2022/03/13 02:49:16;;;;;;;14.63;7.93;;;10.90;60.00;;;;;;5036227;28;20025;-62
2022/03/13 02:51:43;;;;;;;18.95;7.78;;;10.80;59.90;;;;;;5044374;28;20064;-62
2022/03/13 02:54:09;;;;;;;17.42;8.80;;;10.80;59.90;;;;;;5043316;28;20045;-62
2022/03/13 02:56:35;;;;;;;12.05;6.85;;;10.80;60.10;;;;;;5047673;28;20052;-62
2022/03/13 02:59:01;;;;;;;14.90;8.27;;;10.80;60.20;;;;;;5050949;28;20083;-62
2022/03/13 03:01:26;;;;;;;12.50;6.90;;;10.80;60.30;;;;;;5038785;28;20064;-62
2022/03/13 03:04:02;;;;;;;12.35;7.00;;;10.80;60.40;;;;;;5044019;28;20037;-62
2022/03/13 03:06:29;;;;;;;13.07;6.60;;;10.80;60.50;;;;;;5039603;28;20044;-67
2022/03/13 03:08:56;;;;;;;16.10;7.93;;;10.70;60.30;;;;;;5047482;28;20121;-67
2022/03/13 03:11:22;;;;;;;15.55;8.77;;;10.70;60.50;;;;;;5038710;28;20032;-66
2022/03/13 03:13:48;;;;;;;14.30;7.70;;;10.70;60.60;;;;;;5040330;28;20030;-67
2022/03/13 03:16:13;;;;;;;15.90;7.93;;;10.70;60.50;;;;;;5032375;28;20779;-67
2022/03/13 03:18:39;;;;;;;13.98;7.60;;;10.70;60.40;;;;;;5044017;28;20495;-62
2022/03/13 03:21:05;;;;;;;15.43;8.27;;;10.70;60.50;;;;;;5039573;28;20041;-61
2022/03/13 03:23:31;;;;;;;11.57;7.18;;;10.70;60.60;;;;;;5032038;28;20030;-61
2022/03/13 03:25:57;;;;;;;13.18;7.07;;;10.70;60.90;;;;;;5032338;28;20033;-61
2022/03/13 03:28:23;;;;;;;13.02;6.40;;;10.70;60.70;;;;;;5046600;28;20533;-61
2022/03/13 03:30:49;;;;;;;12.80;7.25;;;10.70;60.50;;;;;;5040868;28;20057;-66
2022/03/13 03:33:15;;;;;;;14.13;7.82;;;10.70;60.60;;;;;;5071919;28;20033;-66
2022/03/13 03:35:41;;;;;;;14.23;7.25;;;10.70;60.50;;;;;;5042194;28;20428;-66
2022/03/13 03:38:07;;;;;;;14.23;7.00;;;10.60;60.40;;;;;;5044290;28;20056;-66
2022/03/13 03:40:34;;;;;;;14.40;7.07;;;10.60;60.30;;;;;;5062425;28;20036;-66
2022/03/13 03:43:03;;;;;;;15.55;7.18;;;10.60;60.30;;;;;;5051265;28;20029;-66
2022/03/13 03:45:29;;;;;;;15.25;7.70;;;10.60;60.50;;;;;;5049442;28;20021;-67
2022/03/13 03:47:55;;;;;;;14.38;7.53;;;10.60;60.40;;;;;;5033694;28;20068;-67
2022/03/13 03:50:21;;;;;;;14.65;7.13;;;10.60;60.40;;;;;;5046014;28;20049;-67
2022/03/13 03:52:47;;;;;;;12.95;6.95;;;10.60;60.20;;;;;;5044415;28;20467;-66
2022/03/13 03:55:14;;;;;;;17.80;7.22;;;10.60;60.30;;;;;;5050976;28;20385;-66
2022/03/13 03:57:40;;;;;;;10.75;6.10;;;10.60;60.30;;;;;;5044847;28;20033;-67
2022/03/13 04:00:08;;;;;;;16.75;7.40;;;10.60;60.20;;;;;;5031171;28;20092;-66
2022/03/13 04:02:34;;;;;;;15.45;7.18;;;10.50;60.20;;;;;;5037578;28;20022;-67
2022/03/13 04:05:01;;;;;;;11.32;6.15;;;10.60;61.00;;;;;;5058736;28;20089;-62
2022/03/13 04:07:27;;;;;;;16.90;7.30;;;10.60;60.30;;;;;;5037621;28;20028;-62
2022/03/13 04:09:53;;;;;;;12.35;6.25;;;10.60;60.40;;;;;;5045213;28;20037;-66
2022/03/13 04:12:18;;;;;;;12.85;7.05;;;10.60;60.20;;;;;;5034715;28;20384;-66
2022/03/13 04:14:45;;;;;;;15.98;6.63;;;10.50;60.10;;;;;;5035157;28;20496;-62
2022/03/13 04:17:10;;;;;;;12.98;6.72;;;10.50;60.00;;;;;;5046850;28;20388;-61
2022/03/13 04:19:36;;;;;;;13.75;8.30;;;10.50;60.00;;;;;;5050432;28;20039;-62
2022/03/13 04:22:02;;;;;;;13.20;8.27;;;10.60;60.10;;;;;;5038680;28;20037;-62
2022/03/13 04:24:30;;;;;;;13.05;7.22;;;10.60;60.00;;;;;;5056117;28;20041;-62
2022/03/13 04:26:56;;;;;;;16.25;8.52;;;10.60;59.80;;;;;;5030898;28;20785;-62
2022/03/13 04:29:23;;;;;;;16.30;8.60;;;10.60;59.50;;;;;;5040778;28;20026;-66
2022/03/13 04:31:52;;;;;;;15.27;7.18;;;10.50;59.30;;;;;;5034950;28;20040;-67
2022/03/13 04:34:18;;;;;;;10.13;6.78;;;10.60;59.20;;;;;;5043976;28;20065;-62
2022/03/13 04:36:44;;;;;;;12.93;7.25;;;10.60;59.00;;;;;;5040803;28;20033;-61
2022/03/13 04:39:10;;;;;;;14.30;7.45;;;10.60;58.80;;;;;;5040498;28;20075;-62
2022/03/13 04:41:40;;;;;;;13.45;6.93;;;10.50;58.80;;;;;;5035629;28;20037;-61
2022/03/13 04:44:08;;;;;;;12.60;7.22;;;10.60;58.80;;;;;;5044387;28;20175;-61
2022/03/13 04:46:35;;;;;;;13.13;6.97;;;10.60;58.70;;;;;;5042050;28;20052;-61
2022/03/13 04:49:00;;;;;;;11.77;6.32;;;10.60;58.40;;;;;;5045262;28;20025;-61
2022/03/13 04:51:26;;;;;;;11.60;6.35;;;10.60;58.20;;;;;;5036741;28;20056;-65
2022/03/13 04:53:52;;;;;;;13.20;6.47;;;10.60;58.10;;;;;;5044510;28;20396;-65
2022/03/13 04:56:18;;;;;;;17.45;7.50;;;10.60;58.00;;;;;;5039381;28;20042;-65
2022/03/13 04:58:44;;;;;;;14.30;7.05;;;10.50;57.90;;;;;;5036315;28;20040;-65
2022/03/13 05:01:10;;;;;;;14.77;7.55;;;10.50;57.90;;;;;;5046489;28;20104;-65
2022/03/13 05:03:35;;;;;;;12.50;7.28;;;10.50;58.00;;;;;;5039479;28;20032;-65
2022/03/13 05:06:05;;;;;;;13.85;7.25;;;10.50;57.70;;;;;;5048037;28;20024;-65
2022/03/13 05:08:36;;;;;;;15.20;7.40;;;10.50;57.50;;;;;;5035209;28;20037;-65
2022/03/13 05:11:05;;;;;;;12.27;6.82;;;10.50;57.20;;;;;;5053977;28;20077;-66
2022/03/13 05:13:31;;;;;;;15.05;7.50;;;10.50;57.20;;;;;;5044961;28;20111;-65
2022/03/13 05:15:57;;;;;;;12.10;6.60;;;10.50;57.00;;;;;;5039595;28;20033;-66
2022/03/13 05:18:23;;;;;;;14.07;6.78;;;10.40;56.90;;;;;;5045879;28;20070;-65
2022/03/13 05:20:48;;;;;;;15.30;7.25;;;10.40;56.90;;;;;;5041510;28;20064;-66
2022/03/13 05:23:14;;;;;;;14.90;6.50;;;10.40;56.80;;;;;;5045327;28;20033;-65
2022/03/13 05:25:41;;;;;;;12.68;6.30;;;10.40;56.80;;;;;;5047777;28;20082;-66
2022/03/13 05:28:08;;;;;;;11.73;6.60;;;10.40;56.60;;;;;;5046677;28;20028;-66
2022/03/13 05:30:35;;;;;;;12.18;6.43;;;10.40;56.40;;;;;;5038210;28;20029;-66
2022/03/13 05:33:00;;;;;;;12.23;6.30;;;10.40;56.10;;;;;;5045619;28;20014;-66
2022/03/13 05:35:26;;;;;;;13.25;6.70;;;10.40;56.00;;;;;;5039351;28;20097;-66
2022/03/13 05:37:52;;;;;;;8.77;6.00;;;10.40;55.70;;;;;;5037217;28;20033;-61
2022/03/13 05:40:20;;;;;;;10.55;6.03;;;10.40;55.70;;;;;;5036894;28;20045;-61
2022/03/13 05:42:52;;;;;;;11.40;6.63;;;10.30;55.50;;;;;;5042822;28;20025;-66
2022/03/13 05:45:20;;;;;;;12.40;5.55;;;10.30;55.20;;;;;;5046301;28;20655;-66
2022/03/13 05:47:58;;;;;;;11.95;5.75;;;10.30;54.90;;;;;;5044111;28;20104;-65
2022/03/13 05:50:25;;;;;;;12.68;6.07;;;10.30;54.80;;;;;;5045459;28;20175;-65
2022/03/13 05:52:53;;;;;;;10.70;5.72;;;10.30;54.70;;;;;;5033315;28;20112;-66
2022/03/13 05:55:19;;;;;;;10.70;6.00;;;10.20;54.40;;;;;;5031734;28;20455;-66
2022/03/13 05:57:45;;;;;;;11.52;5.85;;;10.30;54.30;;;;;;5046671;28;20037;-65
2022/03/13 06:00:14;;;;;;;12.20;5.70;;;10.30;54.30;;;;;;5047408;28;20030;-66
2022/03/13 06:02:41;;;;;;;10.75;6.28;;;10.20;54.00;;;;;;5048523;28;20491;-66
2022/03/13 06:05:09;;;;;;;11.07;5.65;;;10.20;54.10;;;;;;5045322;28;20479;-65
2022/03/13 06:07:36;;;;;;;9.95;5.35;;;10.30;53.60;;;;;;5032250;28;20036;-61
2022/03/13 06:10:03;;;;;;;8.95;5.53;;;10.20;53.50;;;;;;5046624;28;20021;-63
2022/03/13 06:12:30;;;;;;;9.73;5.22;;;10.20;53.50;;;;;;5052996;28;20036;-63
2022/03/13 06:14:57;;;;;;;9.75;4.70;;;10.20;53.50;;;;;;5079313;28;20124;-61
2022/03/13 06:17:23;;;;;;;13.07;5.45;;;10.20;53.30;;;;;;5037524;28;20036;-66
2022/03/13 06:19:49;;;;;;;9.48;5.15;;;10.20;53.20;;;;;;5048600;28;20033;-65
2022/03/13 06:22:16;;;;;;;11.85;5.07;;;10.20;53.00;;;;;;5051825;28;20041;-65
2022/03/13 06:24:42;;;;;;;12.20;5.32;;;10.20;52.80;;;;;;5039918;28;20113;-65
2022/03/13 06:27:09;;;;;;;8.57;5.43;;;10.30;53.00;;;;;;5041766;28;20087;-65
2022/03/13 06:29:35;;;;;;;7.75;4.35;;;10.20;53.00;;;;;;5048417;28;20048;-66
2022/03/13 06:32:01;;;;;;;9.40;4.68;;;10.30;52.00;;;;;;5031685;28;20017;-62
2022/03/13 06:34:26;;;;;;;10.25;4.75;;;10.20;51.70;;;;;;5032851;28;20533;-61
2022/03/13 06:36:52;;;;;;;7.35;4.40;;;10.20;52.10;;;;;;5048037;28;20035;-62
2022/03/13 06:39:21;;;;;;;6.97;4.38;;;10.20;52.00;;;;;;5034499;28;20404;-61
2022/03/13 06:41:47;;;;;;;8.88;3.83;;;10.20;52.00;;;;;;5044465;28;20484;-61
2022/03/13 06:44:12;;;;;;;8.20;5.35;;;10.20;51.80;;;;;;5040852;28;20040;-62
2022/03/13 06:46:38;;;;;;;9.60;4.47;;;10.20;51.40;;;;;;5033615;28;20026;-66
2022/03/13 06:49:05;;;;;;;9.77;4.40;;;10.20;51.30;;;;;;5032559;28;20033;-66
2022/03/13 06:51:32;;;;;;;7.13;3.83;;;10.20;51.10;;;;;;5040213;28;20083;-65
2022/03/13 06:53:58;;;;;;;9.07;4.35;;;10.20;51.30;;;;;;5045520;28;20037;-66
2022/03/13 06:56:24;;;;;;;10.38;5.00;;;10.30;51.30;;;;;;5044694;28;20132;-66
2022/03/13 06:58:50;;;;;;;7.93;4.32;;;10.20;51.30;;;;;;5049546;28;20152;-66
2022/03/13 07:01:16;;;;;;;11.55;4.47;;;10.30;51.30;;;;;;5049085;28;20079;-66
2022/03/13 07:03:42;;;;;;;6.88;4.53;;;10.30;50.90;;;;;;5033784;28;20032;-66
2022/03/13 07:06:08;;;;;;;8.93;4.30;;;10.30;50.90;;;;;;5036986;28;20060;-66
2022/03/13 07:08:34;;;;;;;11.30;4.28;;;10.30;51.10;;;;;;5046965;28;20022;-66
2022/03/13 07:11:01;;;;;;;8.57;4.22;;;10.30;50.70;;;;;;5036542;28;20490;-62
2022/03/13 07:13:32;;;;;;;9.43;4.35;;;10.30;50.70;;;;;;5033084;28;20024;-62
2022/03/13 07:16:03;;;;;;;9.77;4.07;;;10.30;50.50;;;;;;5049510;28;20044;-65
2022/03/13 07:18:32;;;;;;;10.02;4.65;;;10.30;50.10;;;;;;5049782;28;20025;-61
2022/03/13 07:20:58;;;;;;;7.90;4.32;;;10.30;50.20;;;;;;5040950;28;20392;-66
2022/03/13 07:23:24;;;;;;;5.88;3.47;;;10.40;50.20;;;;;;5032020;28;20037;-66
2022/03/13 07:25:50;;;;;;;9.07;3.70;;;10.40;50.30;;;;;;5043053;28;20029;-66
2022/03/13 07:28:16;;;;;;;8.07;4.50;;;10.30;50.40;;;;;;5060792;28;20399;-66
2022/03/13 07:30:42;;;;;;;7.13;3.63;;;10.40;50.30;;;;;;5041385;28;20033;-66
2022/03/13 07:33:08;;;;;;;13.18;4.82;;;10.40;50.20;;;;;;5032057;28;20083;-66
2022/03/13 07:35:33;;;;;;;9.35;4.47;;;10.40;50.20;;;;;;5035201;28;20039;-66
2022/03/13 07:37:59;;;;;;;9.25;4.60;;;10.40;49.70;;;;;;5034348;28;20123;-62
2022/03/13 07:40:25;;;;;;;7.97;4.18;;;10.40;49.50;;;;;;5043225;28;20025;-62
2022/03/13 07:42:51;;;;;;;7.55;3.97;;;10.40;49.70;;;;;;5038795;28;20608;-66
2022/03/13 07:45:17;;;;;;;8.23;3.80;;;10.40;49.70;;;;;;5045398;28;20106;-66
2022/03/13 07:47:42;;;;;;;8.52;3.67;;;10.40;49.70;;;;;;5050730;28;20025;-66
2022/03/13 07:50:09;;;;;;;13.30;4.25;;;10.40;49.50;;;;;;5042627;28;20025;-66
2022/03/13 07:52:34;;;;;;;7.43;3.97;;;10.40;49.20;;;;;;5044325;28;20033;-66
2022/03/13 07:55:00;;;;;;;7.82;3.88;;;10.50;49.30;;;;;;5049425;28;20080;-62
2022/03/13 07:57:28;;;;;;;6.63;3.72;;;10.50;49.50;;;;;;5042734;28;20530;-62
2022/03/13 07:59:54;;;;;;;7.53;4.30;;;10.50;48.80;;;;;;5038848;28;20106;-62
2022/03/13 08:02:20;;;;;;;7.72;4.15;;;10.50;48.90;;;;;;5052086;28;20036;-62
2022/03/13 08:04:45;;;;;;;8.18;4.03;;;10.50;48.70;;;;;;5032259;28;20057;-66
2022/03/13 08:07:11;;;;;;;10.43;4.15;;;10.50;48.70;;;;;;5032838;28;20029;-66
2022/03/13 08:09:38;;;;;;;7.28;4.43;;;10.50;48.80;;;;;;5047989;28;20079;-66
2022/03/13 08:12:05;;;;;;;8.00;4.25;;;10.60;48.80;;;;;;5040256;28;20036;-66
2022/03/13 08:14:31;;;;;;;6.38;3.50;;;10.60;48.70;;;;;;5042173;28;20475;-66
2022/03/13 08:16:57;;;;;;;8.15;4.30;;;10.70;48.70;;;;;;5051799;28;20039;-66
2022/03/13 08:19:23;;;;;;;8.32;3.88;;;10.70;48.30;;;;;;5031470;28;20153;-66
2022/03/13 08:21:48;;;;;;;9.38;4.38;;;10.80;47.90;;;;;;5034083;28;20028;-62
2022/03/13 08:24:15;;;;;;;6.18;3.75;;;10.80;47.70;;;;;;5044490;28;20091;-62
2022/03/13 08:26:42;;;;;;;11.65;5.20;;;10.90;47.70;;;;;;5061339;28;20484;-62
2022/03/13 08:29:09;;;;;;;7.50;4.35;;;10.80;47.00;;;;;;5041320;28;20425;-62
2022/03/13 08:31:36;;;;;;;9.80;4.57;;;10.80;47.00;;;;;;5045326;28;20468;-63
2022/03/13 08:34:07;;;;;;;6.78;4.15;;;10.80;46.60;;;;;;5048840;28;20387;-63
2022/03/13 08:36:37;;;;;;;9.43;3.40;;;10.80;46.60;;;;;;5036976;28;20400;-63
2022/03/13 08:39:03;;;;;;;8.20;4.65;;;10.80;46.50;;;;;;5030667;28;20049;-63
2022/03/13 08:41:29;;;;;;;8.25;4.78;;;10.80;46.20;;;;;;5044497;28;20044;-63
2022/03/13 08:43:54;;;;;;;8.00;4.05;;;10.90;46.10;;;;;;5039498;28;20061;-62
2022/03/13 08:46:20;;;;;;;9.30;4.57;;;10.80;46.00;;;;;;5040732;28;20033;-62
2022/03/13 08:48:46;;;;;;;6.90;3.80;;;10.80;45.80;;;;;;5035513;28;20036;-62
2022/03/13 08:51:13;;;;;;;9.93;4.55;;;10.90;46.00;;;;;;5029864;28;20045;-66
2022/03/13 08:53:39;;;;;;;6.53;2.95;;;10.90;46.30;;;;;;5039164;28;20056;-66
2022/03/13 08:56:05;;;;;;;7.47;4.32;;;10.90;46.40;;;;;;5029865;28;20152;-67
2022/03/13 08:58:31;;;;;;;8.57;3.95;;;10.90;45.80;;;;;;5038168;28;20115;-66
2022/03/13 09:00:57;;;;;;;10.90;4.45;;;10.90;46.20;;;;;;5035341;28;20334;-65
2022/03/13 09:03:22;;;;;;;9.45;3.58;;;10.90;46.60;;;;;;5030279;28;20094;-66
2022/03/13 09:05:49;;;;;;;6.07;3.83;;;10.90;46.70;;;;;;5037077;28;20033;-62
2022/03/13 09:08:15;;;;;;;11.05;4.95;;;11.00;47.10;;;;;;5034216;28;20124;-62
2022/03/13 09:10:41;;;;;;;9.32;3.75;;;11.00;47.20;;;;;;5029512;28;20096;-62
2022/03/13 09:13:07;;;;;;;6.70;4.13;;;11.00;47.20;;;;;;5034730;28;20040;-62
2022/03/13 09:15:33;;;;;;;8.32;4.05;;;11.10;47.30;;;;;;5038762;28;20487;-62
2022/03/13 09:18:02;;;;;;;8.02;4.68;;;11.10;47.30;;;;;;5039529;28;20091;-62
2022/03/13 09:20:28;;;;;;;8.27;4.00;;;11.10;47.30;;;;;;5035398;28;20041;-62
2022/03/13 09:22:54;;;;;;;10.07;4.90;;;11.20;47.40;;;;;;5035699;28;20033;-62
2022/03/13 09:25:20;;;;;;;8.63;4.25;;;11.20;47.30;;;;;;5030622;28;20454;-66
2022/03/13 09:27:46;;;;;;;9.32;4.38;;;11.30;47.20;;;;;;5043433;28;20120;-66
2022/03/13 09:30:12;;;;;;;6.35;3.78;;;11.30;47.20;;;;;;5040130;28;20030;-66
2022/03/13 09:32:38;;;;;;;5.50;3.28;;;11.40;47.20;;;;;;5041569;28;20029;-66
2022/03/13 09:35:04;;;;;;;7.13;4.15;;;11.40;47.20;;;;;;5039757;28;20060;-66
2022/03/13 09:37:31;;;;;;;13.25;4.25;;;11.50;46.90;;;;;;5043636;28;20029;-66
2022/03/13 09:39:56;;;;;;;7.32;3.70;;;11.60;47.50;;;;;;5048925;28;20025;-66
2022/03/13 09:42:22;;;;;;;6.60;3.58;;;11.70;46.90;;;;;;5043342;28;20546;-65
2022/03/13 09:44:48;;;;;;;6.85;4.22;;;11.80;46.90;;;;;;5052452;28;20075;-65
2022/03/13 09:47:13;;;;;;;8.85;4.10;;;12.00;46.30;;;;;;5047177;28;20094;-66
2022/03/13 09:49:43;;;;;;;8.80;4.10;;;12.10;45.80;;;;;;5034914;28;20033;-65
2022/03/13 09:52:09;;;;;;;9.20;3.97;;;12.20;45.90;;;;;;5034721;28;20035;-65
2022/03/13 09:54:35;;;;;;;9.60;5.45;;;12.30;45.40;;;;;;5048864;28;20480;-65
2022/03/13 09:57:05;;;;;;;9.25;4.55;;;12.40;44.90;;;;;;5048087;28;20060;-62
2022/03/13 09:59:31;;;;;;;9.48;4.47;;;12.50;44.70;;;;;;5054607;28;20064;-62
2022/03/13 10:01:57;;;;;;;11.85;4.93;;;12.60;44.70;;;;;;5040217;28;20056;-66
2022/03/13 10:04:23;;;;;;;8.45;4.78;;;12.70;44.70;;;;;;5041375;28;20080;-66
2022/03/13 10:07:09;;;;;;;9.27;4.93;;;12.80;43.90;;;;;;5046762;28;20036;-66
2022/03/13 10:09:37;;;;;;;20.83;5.07;;;12.90;44.00;;;;;;5048042;28;20052;-62
2022/03/13 10:12:04;;;;;;;8.50;4.90;;;13.10;43.80;;;;;;5047024;28;20036;-62
2022/03/13 10:14:30;;;;;;;9.95;4.20;;;13.20;44.00;;;;;;5046084;28;20037;-66
2022/03/13 10:16:56;;;;;;;10.23;5.35;;;13.40;43.50;;;;;;5039525;28;20045;-66
2022/03/13 10:19:24;;;;;;;10.23;5.35;;;13.50;43.10;;;;;;5033692;28;20041;-63
2022/03/13 10:22:00;;;;;;;8.88;4.75;;;13.70;43.10;;;;;;5044865;28;20519;-62
2022/03/13 10:24:27;;;;;;;8.73;4.57;;;13.80;43.00;;;;;;5042682;28;20025;-62
2022/03/13 10:27:12;;;;;;;12.27;7.25;;;13.90;42.90;;;;;;5041250;28;20033;-62
2022/03/13 10:29:38;;;;;;;223.45;79.90;;;14.00;42.40;;;;;;5043378;28;20471;-66
2022/03/13 10:32:05;;;;;;;15.70;11.43;;;14.10;42.60;;;;;;5041954;28;20050;-66
2022/03/13 10:34:35;;;;;;;16.23;11.23;;;14.00;42.70;;;;;;5041581;28;20451;-66
2022/03/13 10:37:04;;;;;;;15.65;9.93;;;13.90;42.90;;;;;;5038242;28;20410;-66
2022/03/13 10:39:31;;;;;;;15.32;9.00;;;14.00;43.00;;;;;;5046596;28;20043;-66
2022/03/13 10:42:07;;;;;;;16.92;9.25;;;14.20;43.10;;;;;;5044706;28;20037;-66
2022/03/13 10:44:52;;;;;;;14.88;8.35;;;14.40;42.80;;;;;;5044324;28;20033;-66
2022/03/13 10:47:24;;;;;;;14.05;10.10;;;14.70;42.50;;;;;;5044157;28;20413;-66
2022/03/13 10:49:53;;;;;;;15.10;9.30;;;14.80;42.30;;;;;;5045330;28;20029;-66
2022/03/13 10:52:41;;;;;;;14.88;9.60;;;14.80;42.50;;;;;;5042591;28;20472;-65
2022/03/13 10:55:24;;;;;;;14.98;9.65;;;15.00;42.30;;;;;;5055589;28;20041;-66
2022/03/13 10:57:53;;;;;;;15.27;9.43;;;15.20;42.40;;;;;;5051962;28;20478;-66
2022/03/13 11:00:21;;;;;;;15.13;9.05;;;15.40;42.30;;;;;;5046116;28;20029;-66
2022/03/13 11:02:47;;;;;;;14.27;9.02;;;15.60;42.10;;;;;;5049731;28;20490;-66
2022/03/13 11:05:13;;;;;;;14.25;9.52;;;15.80;42.00;;;;;;5067800;28;20047;-67
2022/03/13 11:07:39;;;;;;;15.05;9.52;;;15.80;41.90;;;;;;5055835;28;20032;-66
2022/03/13 11:10:07;;;;;;;16.38;11.48;;;15.80;42.20;;;;;;5047076;28;20078;-66
2022/03/13 11:12:34;;;;;;;14.90;8.60;;;15.70;42.10;;;;;;5047138;28;20103;-62
2022/03/13 11:15:02;;;;;;;13.65;8.55;;;15.70;42.90;;;;;;5050701;28;20108;-63
2022/03/13 11:17:32;;;;;;;12.77;8.38;;;15.70;42.60;;;;;;5050905;28;20045;-66
2022/03/13 11:19:59;;;;;;;18.75;9.57;;;15.80;43.00;;;;;;5066218;28;20029;-66
2022/03/13 11:22:26;;;;;;;17.67;12.02;;;15.90;42.80;;;;;;5058519;28;20059;-62
2022/03/13 11:25:05;;;;;;;14.00;10.00;;;16.00;42.60;;;;;;5051158;28;20033;-66
2022/03/13 11:27:33;;;;;;;12.15;8.68;;;16.20;42.40;;;;;;5050061;28;20540;-66
2022/03/13 11:29:59;;;;;;;12.52;8.50;;;16.30;41.90;;;;;;5051088;28;20391;-66
2022/03/13 11:32:32;;;;;;;13.63;8.88;;;16.30;41.90;;;;;;5048369;28;20029;-63
2022/03/13 11:37:39;;;;;;;15.80;8.77;;;16.50;41.70;;;;;;5058863;28;20044;-66
2022/03/13 11:40:08;;;;;;;12.88;7.88;;;16.60;41.70;;;;;;5050294;28;20051;-66
2022/03/13 11:43:06;;;;;;;11.68;7.90;;;16.80;41.80;;;;;;5048286;28;20108;-66
2022/03/13 11:45:34;;;;;;;13.93;8.77;;;16.90;41.70;;;;;;5045669;28;20041;-66
2022/03/13 11:48:05;;;;;;;13.52;8.68;;;17.10;41.00;;;;;;5049731;28;20098;-67
2022/03/13 11:50:51;;;;;;;12.68;9.27;;;17.10;40.70;;;;;;5048139;28;20380;-67
2022/03/13 11:53:27;;;;;;;13.70;9.30;;;17.20;39.90;;;;;;5046426;28;20018;-64
2022/03/13 11:56:08;;;;;;;14.52;8.43;;;17.30;39.90;;;;;;5043255;28;20417;-62
2022/03/13 11:58:48;;;;;;;12.57;7.93;;;17.30;40.10;;;;;;5048567;28;20031;-62
2022/03/13 12:01:21;;;;;;;11.65;7.63;;;17.40;40.40;;;;;;5049878;28;20476;-62
2022/03/13 12:04:03;;;;;;;12.23;7.35;;;17.50;40.10;;;;;;5050655;28;20146;-65
2022/03/13 12:06:39;;;;;;;14.23;9.20;;;17.60;39.20;;;;;;5050988;28;20044;-65
2022/03/13 12:09:16;;;;;;;17.23;8.57;;;17.60;39.50;;;;;;5051199;28;20052;-65
2022/03/13 12:11:50;;;;;;;14.05;9.32;;;17.50;39.90;;;;;;5049991;28;20101;-65
2022/03/13 12:14:17;;;;;;;12.68;8.88;;;17.70;40.20;;;;;;5050902;28;20104;-66
2022/03/13 12:16:44;;;;;;;12.20;8.98;;;17.70;40.10;;;;;;5050795;28;20512;-65
2022/03/13 12:19:17;;;;;;;16.90;10.07;;;17.90;39.60;;;;;;5049685;28;20496;-66
2022/03/13 12:21:45;;;;;;;13.95;10.20;;;18.00;39.90;;;;;;5049704;28;20488;-65
2022/03/13 12:24:17;;;;;;;12.77;9.80;;;18.00;39.40;;;;;;5049889;28;20086;-65
2022/03/13 12:26:45;;;;;;;12.65;8.88;;;18.10;40.00;;;;;;5049667;28;20028;-65
2022/03/13 12:29:15;;;;;;;12.00;8.80;;;18.10;39.00;;;;;;5050572;28;20104;-63
2022/03/13 12:31:43;;;;;;;10.23;7.35;;;18.20;39.40;;;;;;5050464;28;20377;-62
2022/03/13 12:34:10;;;;;;;8.63;6.40;;;18.20;39.40;;;;;;5050740;28;20591;-62
2022/03/13 12:36:38;;;;;;;8.25;6.30;;;18.40;39.00;;;;;;5048404;28;20476;-63
2022/03/13 12:39:16;;;;;;;13.55;10.13;;;18.40;38.70;;;;;;5050750;28;20044;-65
2022/03/13 12:41:54;;;;;;;11.38;8.60;;;18.50;39.30;;;;;;5049930;28;20036;-65
2022/03/13 12:44:21;;;;;;;12.10;7.60;;;18.50;39.30;;;;;;5049033;28;20028;-62
2022/03/13 12:46:51;;;;;;;9.95;6.88;;;18.60;39.00;;;;;;5049826;28;20104;-62